Time;durP1;ratioP1;P1;durP2;ratioP2;P2;SDS_P1;SDS_P2;PMS_P1;PMS_P2;Temp;Humidity;BMP_temperature;BMP_pressure;BME280_temperature;BME280_humidity;BME280_pressure;Samples;Min_cycle;Max_cycle;Signal;HPM_P1;HPM_P2
2022/07/15 00:02:19;;;;;;;0.80;0.80;;;;;;;22.16;56.83;95659.31;4336049;32;20207;-64
2022/07/15 00:04:47;;;;;;;4.20;1.23;;;;;;;22.25;55.14;95682.25;4356370;32;20169;-64
2022/07/15 00:07:13;;;;;;;0.60;0.60;;;;;;;22.20;55.55;95679.09;4355368;32;20256;-64
2022/07/15 00:12:25;;;;;;;0.83;0.83;;;;;;;22.11;55.02;95663.09;4353168;32;20327;-64
2022/07/15 00:14:51;;;;;;;0.63;0.63;;;;;;;22.17;56.46;95658.19;4299231;32;20252;-64
2022/07/15 00:17:18;;;;;;;0.80;0.80;;;;;;;22.12;55.15;95663.87;4345305;32;20201;-64
2022/07/15 00:19:46;;;;;;;0.60;0.60;;;;;;;22.08;56.28;95655.69;4340167;32;20256;-63
2022/07/15 00:22:11;;;;;;;0.77;0.77;;;;;;;22.05;56.34;95656.41;4307587;32;20198;-64
2022/07/15 00:24:38;;;;;;;0.90;0.90;;;;;;;22.00;56.37;95648.63;4329848;32;20185;-64
2022/07/15 00:27:04;;;;;;;0.60;0.60;;;;;;;22.00;56.10;95664.03;4328168;32;20189;-64
2022/07/15 00:29:31;;;;;;;1.10;1.10;;;;;;;22.08;55.39;95661.09;4342505;32;20180;-64
2022/07/15 00:31:57;;;;;;;2.97;1.30;;;;;;;22.07;56.08;95664.16;4308509;32;20178;-64
2022/07/15 00:34:23;;;;;;;0.53;0.53;;;;;;;22.03;55.35;95658.69;4280141;32;20259;-64
2022/07/15 00:37:11;;;;;;;0.47;0.40;;;;;;;21.97;55.88;95653.91;4342318;32;20172;-64
2022/07/15 00:39:36;;;;;;;0.90;0.90;;;;;;;21.99;57.13;95674.03;4363950;32;20274;-64
2022/07/15 00:42:03;;;;;;;1.10;1.03;;;;;;;21.90;59.05;95660.75;4346324;32;20174;-64
2022/07/15 00:44:28;;;;;;;1.00;1.00;;;;;;;21.84;58.08;95635.16;4355081;32;20199;-64
2022/07/15 00:46:56;;;;;;;0.57;0.57;;;;;;;21.76;58.56;95641.56;4341676;32;20185;-64
2022/07/15 00:49:23;;;;;;;0.47;0.47;;;;;;;21.70;59.88;95645.69;4318764;32;20207;-64
2022/07/15 00:51:58;;;;;;;0.70;0.70;;;;;;;21.66;64.54;95644.06;4328551;32;20182;-64
2022/07/15 00:54:27;;;;;;;0.80;0.80;;;;;;;21.53;61.39;95641.50;4356438;32;20223;-64
2022/07/15 00:56:56;;;;;;;0.60;0.60;;;;;;;21.54;62.59;95658.50;4306662;32;20232;-63
2022/07/15 00:59:32;;;;;;;1.00;0.93;;;;;;;21.55;62.09;95670.84;4360351;32;20271;-64
2022/07/15 01:01:57;;;;;;;0.50;0.50;;;;;;;21.61;61.03;95688.34;4333380;32;20183;-64
2022/07/15 01:04:23;;;;;;;0.83;0.83;;;;;;;21.44;63.38;95684.12;4340030;32;20265;-65
2022/07/15 01:06:50;;;;;;;1.53;1.20;;;;;;;21.03;66.93;95669.31;4348436;32;20251;-64
2022/07/15 01:09:16;;;;;;;0.97;0.97;;;;;;;20.94;67.92;95671.44;4336667;32;20188;-64
2022/07/15 01:11:43;;;;;;;2.30;1.13;;;;;;;20.71;68.66;95670.50;4358126;32;20305;-64
2022/07/15 01:14:08;;;;;;;1.00;1.00;;;;;;;20.61;69.42;95654.84;4343344;32;20284;-65
2022/07/15 01:16:33;;;;;;;0.77;0.70;;;;;;;20.62;70.81;95662.56;4337127;32;20204;-65
2022/07/15 01:19:00;;;;;;;1.53;1.43;;;;;;;20.57;74.85;95666.34;4355857;32;20189;-64
2022/07/15 01:21:26;;;;;;;0.93;0.93;;;;;;;20.55;75.59;95657.81;4321365;32;20260;-64
2022/07/15 01:23:52;;;;;;;0.93;0.93;;;;;;;20.47;76.35;95672.25;4369975;32;20240;-64
2022/07/15 01:26:17;;;;;;;1.43;1.43;;;;;;;20.35;76.53;95677.69;4362755;32;20208;-65
2022/07/15 01:28:44;;;;;;;0.93;0.93;;;;;;;20.38;77.20;95674.31;4342885;32;20192;-64
2022/07/15 01:31:12;;;;;;;1.13;1.13;;;;;;;20.38;73.40;95668.94;4348885;32;20257;-65
2022/07/15 01:33:39;;;;;;;1.20;1.20;;;;;;;20.21;75.51;95680.00;4324971;32;20322;-65
2022/07/15 01:36:08;;;;;;;1.10;1.10;;;;;;;20.37;77.31;95691.62;4348942;32;20199;-65
2022/07/15 01:38:37;;;;;;;5.73;0.90;;;;;;;20.32;78.23;95693.78;4331803;32;20255;-65
2022/07/15 01:41:07;;;;;;;0.80;0.80;;;;;;;20.40;78.95;95677.44;4357376;32;20210;-64
2022/07/15 01:43:33;;;;;;;0.83;0.83;;;;;;;20.02;78.37;95669.13;4353850;32;20217;-64
2022/07/15 01:46:00;;;;;;;2.43;1.37;;;;;;;19.96;79.29;95673.19;4347044;32;20193;-64
2022/07/15 01:51:10;;;;;;;0.83;0.83;;;;;;;20.23;79.93;95664.28;4348659;32;20290;-65
2022/07/15 01:53:40;;;;;;;0.70;0.70;;;;;;;20.07;78.14;95669.66;4325446;32;20256;-65
2022/07/15 01:56:06;;;;;;;0.77;0.77;;;;;;;20.20;77.37;95676.53;4328470;32;20272;-65
2022/07/15 01:58:33;;;;;;;1.53;1.13;;;;;;;20.25;76.80;95686.28;4350055;32;20221;-65
2022/07/15 02:01:00;;;;;;;0.80;0.80;;;;;;;20.32;75.58;95688.38;4310751;32;20370;-64
2022/07/15 02:03:28;;;;;;;2.70;0.83;;;;;;;20.28;74.76;95679.41;4344781;32;20200;-65
2022/07/15 02:05:57;;;;;;;1.80;1.33;;;;;;;20.37;76.48;95667.34;4351551;32;20269;-65
2022/07/15 02:08:24;;;;;;;1.00;1.00;;;;;;;20.28;73.34;95666.72;4335712;32;20196;-65
2022/07/15 02:10:49;;;;;;;4.93;1.43;;;;;;;20.21;72.12;95667.31;4343637;32;20184;-65
2022/07/15 02:13:15;;;;;;;0.83;0.83;;;;;;;20.25;73.22;95675.50;4349322;32;20189;-65
2022/07/15 02:15:41;;;;;;;1.13;1.13;;;;;;;20.16;71.65;95672.97;4342634;32;20196;-65
2022/07/15 02:18:10;;;;;;;0.63;0.63;;;;;;;20.23;72.91;95672.37;4340508;32;20222;-64
2022/07/15 02:20:37;;;;;;;1.40;1.33;;;;;;;20.32;71.85;95664.13;4338840;32;20268;-65
2022/07/15 02:23:05;;;;;;;1.40;1.37;;;;;;;20.26;70.83;95677.06;4339807;32;20224;-65
2022/07/15 02:25:32;;;;;;;0.90;0.90;;;;;;;20.20;71.49;95683.81;4335704;32;20226;-64
2022/07/15 02:28:03;;;;;;;0.73;0.73;;;;;;;20.14;72.10;95674.47;4333022;32;20192;-65
2022/07/15 02:30:35;;;;;;;0.97;0.93;;;;;;;20.04;72.58;95680.34;4339402;32;20185;-65
2022/07/15 02:33:03;;;;;;;1.33;1.23;;;;;;;20.05;73.81;95679.22;4310183;32;20243;-64
2022/07/15 02:35:44;;;;;;;1.00;1.00;;;;;;;20.13;72.47;95676.38;4333861;32;20185;-64
2022/07/15 02:38:10;;;;;;;2.10;1.57;;;;;;;20.14;72.49;95685.22;4332677;32;20386;-65
2022/07/15 02:40:37;;;;;;;0.93;0.93;;;;;;;19.96;73.00;95675.88;4360861;32;20284;-65
2022/07/15 02:43:04;;;;;;;1.10;1.00;;;;;;;19.98;72.08;95674.41;4355138;32;20215;-65
2022/07/15 02:45:34;;;;;;;0.93;0.93;;;;;;;20.00;70.62;95682.94;4371489;32;20177;-65
2022/07/15 02:48:06;;;;;;;15.90;1.17;;;;;;;19.83;69.71;95684.00;4362051;32;20189;-65
2022/07/15 02:50:38;;;;;;;1.50;1.40;;;;;;;19.70;68.71;95693.28;4362995;32;20242;-65
2022/07/15 02:53:05;;;;;;;0.67;0.67;;;;;;;19.62;70.35;95704.16;4357301;32;20231;-65
2022/07/15 02:55:32;;;;;;;0.90;0.90;;;;;;;19.61;68.14;95694.53;4370743;32;20184;-64
2022/07/15 02:57:59;;;;;;;1.40;1.13;;;;;;;19.40;69.43;95690.06;4356218;32;20202;-64
2022/07/15 03:00:26;;;;;;;0.87;0.87;;;;;;;19.41;70.66;95693.53;4335861;32;20256;-64
2022/07/15 03:02:52;;;;;;;0.43;0.43;;;;;;;19.42;68.29;95700.50;4356461;32;20193;-65
2022/07/15 03:05:20;;;;;;;0.77;0.77;;;;;;;19.53;69.80;95707.03;4373885;32;20201;-65
2022/07/15 03:07:48;;;;;;;0.47;0.47;;;;;;;19.32;67.31;95700.97;4373377;32;20281;-65
2022/07/15 03:10:16;;;;;;;0.50;0.50;;;;;;;19.25;68.97;95706.94;4368905;32;20223;-65
2022/07/15 03:12:44;;;;;;;1.50;1.27;;;;;;;19.24;68.11;95710.75;4361868;32;20188;-64
2022/07/15 03:15:11;;;;;;;0.33;0.33;;;;;;;19.21;66.94;95709.50;4336628;32;20367;-64
2022/07/15 03:17:45;;;;;;;6.33;1.10;;;;;;;19.31;68.75;95707.50;4345782;32;20272;-64
2022/07/15 03:20:10;;;;;;;0.60;0.60;;;;;;;19.46;69.72;95712.16;4340134;32;20178;-64
2022/07/15 03:22:36;;;;;;;0.67;0.67;;;;;;;19.33;68.37;95714.06;4348998;32;20362;-64
2022/07/15 03:25:02;;;;;;;0.60;0.60;;;;;;;19.29;68.79;95717.81;4333422;32;20189;-64
2022/07/15 03:27:28;;;;;;;4.90;1.07;;;;;;;19.37;71.73;95723.03;4338390;32;20283;-65
2022/07/15 03:29:55;;;;;;;0.70;0.70;;;;;;;19.43;69.58;95721.69;4351514;32;20220;-65
2022/07/15 03:32:20;;;;;;;0.67;0.67;;;;;;;19.50;70.00;95715.78;4317031;32;20185;-64
2022/07/15 03:34:46;;;;;;;0.30;0.30;;;;;;;19.44;66.63;95714.41;4359984;32;20177;-65
2022/07/15 03:37:15;;;;;;;0.50;0.50;;;;;;;19.27;66.18;95728.91;4344953;32;20176;-64
2022/07/15 03:39:41;;;;;;;1.20;1.10;;;;;;;19.14;66.18;95722.72;4362199;32;20181;-64
2022/07/15 03:42:09;;;;;;;1.00;1.00;;;;;;;19.15;67.44;95731.59;4345959;32;20249;-65
2022/07/15 03:44:36;;;;;;;2.00;0.83;;;;;;;19.17;67.88;95735.50;4338577;32;20189;-64
2022/07/15 03:47:02;;;;;;;1.60;1.50;;;;;;;19.24;64.68;95732.25;4358224;32;20196;-65
2022/07/15 03:49:28;;;;;;;0.60;0.60;;;;;;;19.25;68.58;95733.03;4359582;32;20270;-63
2022/07/15 03:51:53;;;;;;;0.57;0.50;;;;;;;19.27;65.93;95728.13;4337534;32;20228;-64
2022/07/15 03:54:19;;;;;;;0.40;0.40;;;;;;;19.22;65.77;95721.84;4352223;32;20302;-65
2022/07/15 03:56:49;;;;;;;0.60;0.60;;;;;;;19.03;65.33;95727.00;4373196;32;20202;-65
2022/07/15 03:59:23;;;;;;;0.63;0.63;;;;;;;19.15;66.81;95729.69;4351919;32;20227;-65
2022/07/15 04:01:50;;;;;;;1.00;1.00;;;;;;;19.17;66.33;95724.75;4333555;32;20234;-64
2022/07/15 04:04:16;;;;;;;0.53;0.53;;;;;;;19.10;68.74;95732.63;4348645;32;20260;-64
2022/07/15 04:06:44;;;;;;;0.53;0.53;;;;;;;19.05;66.23;95737.44;4344844;32;20219;-64
2022/07/15 04:09:15;;;;;;;0.60;0.60;;;;;;;18.96;65.49;95734.06;4339070;32;20185;-63
2022/07/15 04:11:42;;;;;;;2.23;0.43;;;;;;;19.12;64.71;95719.59;4310517;32;20367;-64
2022/07/15 04:14:11;;;;;;;0.30;0.30;;;;;;;19.10;67.27;95731.84;4302433;32;20186;-64
2022/07/15 04:16:39;;;;;;;0.40;0.40;;;;;;;19.14;66.39;95730.00;4337235;32;20270;-65
2022/07/15 04:19:05;;;;;;;0.57;0.57;;;;;;;19.28;69.62;95725.09;4319147;32;20323;-64
2022/07/15 04:21:32;;;;;;;0.80;0.80;;;;;;;19.15;65.14;95727.00;4327405;32;20197;-65
2022/07/15 04:24:00;;;;;;;0.20;0.20;;;;;;;19.20;65.02;95734.06;4348070;32;20197;-65
2022/07/15 04:26:27;;;;;;;0.63;0.63;;;;;;;19.29;64.09;95725.87;4338647;32;20191;-65
2022/07/15 04:28:56;;;;;;;1.57;0.60;;;;;;;19.21;67.66;95736.41;4352128;32;20216;-65
2022/07/15 04:31:26;;;;;;;0.33;0.33;;;;;;;19.26;66.76;95737.31;4353376;32;20192;-64
2022/07/15 04:33:52;;;;;;;2.40;1.10;;;;;;;19.33;68.26;95740.22;4351544;32;20240;-64
2022/07/15 04:36:20;;;;;;;0.83;0.83;;;;;;;19.26;66.71;95742.69;4345572;32;20192;-64
2022/07/15 04:38:48;;;;;;;0.57;0.57;;;;;;;19.36;65.56;95739.53;4341162;32;20189;-64
2022/07/15 04:41:15;;;;;;;0.70;0.70;;;;;;;19.35;66.89;95746.03;4356214;32;20189;-64
2022/07/15 04:43:42;;;;;;;0.80;0.80;;;;;;;19.42;66.64;95738.97;4359674;32;20192;-64
2022/07/15 04:46:11;;;;;;;1.20;0.97;;;;;;;19.48;66.98;95739.50;4348772;32;20230;-64
2022/07/15 04:51:22;;;;;;;0.40;0.40;;;;;;;19.26;67.49;95730.03;4350545;32;20200;-65
2022/07/15 04:53:47;;;;;;;0.83;0.83;;;;;;;19.34;68.15;95733.69;4337749;32;20256;-64
2022/07/15 04:56:15;;;;;;;0.40;0.40;;;;;;;19.12;67.54;95729.59;4349344;32;20184;-63
2022/07/15 04:58:42;;;;;;;0.57;0.57;;;;;;;19.23;66.93;95731.47;4351228;32;20177;-64
2022/07/15 05:01:10;;;;;;;0.50;0.50;;;;;;;19.28;67.06;95735.06;4335056;32;20189;-64
2022/07/15 05:03:36;;;;;;;0.30;0.30;;;;;;;19.04;65.21;95738.56;4359395;32;20203;-64
2022/07/15 05:06:08;;;;;;;0.90;0.90;;;;;;;18.82;64.39;95737.88;4345305;32;20200;-64
2022/07/15 05:08:35;;;;;;;0.70;0.70;;;;;;;18.81;65.13;95733.63;4355899;32;20185;-64
2022/07/15 05:11:02;;;;;;;2.37;0.73;;;;;;;18.93;66.99;95738.19;4343321;32;20204;-63
2022/07/15 05:13:31;;;;;;;1.23;0.87;;;;;;;19.00;65.11;95743.81;4347376;32;20294;-64
2022/07/15 05:15:58;;;;;;;0.70;0.47;;;;;;;18.88;65.80;95741.13;4366311;32;20184;-64
2022/07/15 05:18:25;;;;;;;0.60;0.60;;;;;;;19.09;68.36;95746.41;4357431;32;20192;-64
2022/07/15 05:20:52;;;;;;;1.20;1.20;;;;;;;19.25;68.25;95741.13;4356677;32;20188;-65
2022/07/15 05:23:25;;;;;;;0.83;0.83;;;;;;;19.31;67.76;95737.09;4337537;32;20181;-64
2022/07/15 05:25:54;;;;;;;0.40;0.40;;;;;;;19.43;68.05;95745.12;4364251;32;20216;-64
2022/07/15 05:28:24;;;;;;;0.40;0.40;;;;;;;19.40;64.02;95746.59;4348265;32;20189;-64
2022/07/15 05:30:50;;;;;;;0.60;0.60;;;;;;;19.37;66.02;95749.94;4300982;32;20197;-64
2022/07/15 05:33:16;;;;;;;1.23;0.73;;;;;;;19.16;64.43;95755.47;4349531;32;20211;-64
2022/07/15 05:35:45;;;;;;;3.40;0.87;;;;;;;19.16;63.67;95750.06;4361758;32;20188;-64
2022/07/15 05:38:12;;;;;;;2.13;1.07;;;;;;;19.31;67.22;95755.91;4321520;32;20202;-64
2022/07/15 05:40:40;;;;;;;1.50;1.23;;;;;;;19.17;65.36;95756.25;4333415;32;20195;-64
2022/07/15 05:43:06;;;;;;;0.60;0.60;;;;;;;19.27;67.37;95755.81;4342481;32;20204;-64
2022/07/15 05:45:33;;;;;;;0.53;0.53;;;;;;;19.15;64.40;95767.34;4350914;32;20180;-63
2022/07/15 05:47:59;;;;;;;0.83;0.70;;;;;;;19.18;64.95;95763.97;4364813;32;20189;-64
2022/07/15 05:50:26;;;;;;;6.90;3.07;;;;;;;19.19;64.37;95772.84;4350615;32;20195;-51
2022/07/15 05:52:54;;;;;;;1.97;1.33;;;;;;;19.58;73.29;95776.75;4335155;32;20202;-51
2022/07/15 05:55:20;;;;;;;0.63;0.63;;;;;;;20.07;67.42;95776.63;4364024;32;20252;-49
2022/07/15 05:57:49;;;;;;;2.27;0.60;;;;;;;20.48;64.05;95767.38;4342212;32;20211;-53
2022/07/15 06:00:18;;;;;;;1.37;1.37;;;;;;;20.63;62.51;95771.22;4333174;32;20230;-51
2022/07/15 06:02:45;;;;;;;0.90;0.90;;;;;;;20.69;60.33;95775.22;4320190;32;20185;-50
2022/07/15 06:05:10;;;;;;;1.73;1.63;;;;;;;20.54;61.89;95782.19;4324281;32;20249;-47
2022/07/15 06:07:36;;;;;;;1.90;1.77;;;;;;;20.56;62.02;95788.78;4334580;32;20370;-51
2022/07/15 06:10:05;;;;;;;0.80;0.80;;;;;;;20.75;64.64;95784.63;4331370;32;20234;-53
2022/07/15 06:12:31;;;;;;;1.27;0.63;;;;;;;20.56;62.48;95788.78;4328995;32;20188;-52
2022/07/15 06:14:57;;;;;;;1.67;1.57;;;;;;;20.79;61.66;95796.28;4339758;32;20206;-53
2022/07/15 06:17:24;;;;;;;1.40;1.33;;;;;;;20.95;60.05;95790.91;4357025;32;20227;-51
2022/07/15 06:19:51;;;;;;;1.77;0.70;;;;;;;21.18;61.94;95787.25;4341649;32;20254;-47
2022/07/15 06:22:17;;;;;;;1.87;1.77;;;;;;;20.69;58.29;95791.41;4331530;32;20268;-51
2022/07/15 06:24:47;;;;;;;1.10;1.10;;;;;;;20.83;59.09;95792.56;4362921;32;20268;-50
2022/07/15 06:27:13;;;;;;;2.67;2.30;;;;;;;20.69;59.55;95789.50;4321274;32;20189;-48
2022/07/15 06:29:38;;;;;;;1.90;1.60;;;;;;;20.49;57.60;95791.28;4329163;32;20236;-47
2022/07/15 06:32:15;;;;;;;1.53;1.53;;;;;;;20.50;56.30;95790.16;4303043;32;20291;-52
2022/07/15 06:34:42;;;;;;;1.60;1.20;;;;;;;20.59;59.80;95796.16;4356154;32;20184;-49
2022/07/15 06:37:11;;;;;;;0.93;0.93;;;;;;;20.61;58.63;95792.34;4346925;32;20215;-49
2022/07/15 06:39:36;;;;;;;0.60;0.60;;;;;;;20.18;56.41;95788.47;4340201;32;20264;-47
2022/07/15 06:42:06;;;;;;;1.23;1.13;;;;;;;20.44;57.27;95799.63;4323118;32;20277;-52
2022/07/15 06:44:33;;;;;;;2.83;0.60;;;;;;;20.49;58.35;95796.69;4338078;32;20192;-50
2022/07/15 06:47:06;;;;;;;1.83;1.20;;;;;;;20.57;57.24;95800.38;4355778;32;20199;-52
2022/07/15 06:49:37;;;;;;;4.23;1.00;;;;;;;20.79;59.93;95797.06;4329132;32;20188;-51
2022/07/15 06:52:05;;;;;;;0.57;0.57;;;;;;;20.40;55.98;95796.03;4324215;32;20246;-47
2022/07/15 06:54:33;;;;;;;0.30;0.30;;;;;;;20.35;57.49;95798.97;4334655;32;20283;-47
2022/07/15 06:57:05;;;;;;;0.40;0.40;;;;;;;20.49;57.00;95802.06;4290842;32;20186;-45
2022/07/15 06:59:36;;;;;;;0.47;0.47;;;;;;;20.44;57.85;95796.94;4295320;32;20200;-48
2022/07/15 07:02:02;;;;;;;0.30;0.30;;;;;;;20.37;56.59;95796.72;4287486;32;20194;-51
2022/07/15 07:04:29;;;;;;;0.17;0.17;;;;;;;20.43;55.14;95800.75;4334696;32;20271;-48
2022/07/15 07:06:56;;;;;;;0.83;0.37;;;;;;;20.51;54.96;95807.13;4333910;32;20233;-49
2022/07/15 07:09:25;;;;;;;0.47;0.47;;;;;;;20.60;55.76;95807.75;4338053;32;20215;-49
2022/07/15 07:11:50;;;;;;;0.97;0.90;;;;;;;20.58;54.66;95812.69;4288002;32;20189;-46
2022/07/15 07:14:19;;;;;;;0.37;0.37;;;;;;;20.66;55.30;95813.66;4303628;32;20216;-48
2022/07/15 07:16:46;;;;;;;0.97;0.90;;;;;;;20.74;54.84;95807.34;4304847;32;20190;-45
2022/07/15 07:19:13;;;;;;;0.47;0.47;;;;;;;20.48;54.04;95805.12;4322117;32;20189;-47
2022/07/15 07:21:40;;;;;;;0.50;0.50;;;;;;;20.57;53.66;95809.25;4335020;32;23131;-48
2022/07/15 07:24:07;;;;;;;0.30;0.30;;;;;;;20.65;53.03;95812.09;4332911;32;20215;-49
2022/07/15 07:26:40;;;;;;;0.57;0.57;;;;;;;20.83;51.41;95816.03;4321015;32;20223;-48
2022/07/15 07:29:06;;;;;;;0.50;0.50;;;;;;;20.75;52.01;95806.22;4287112;32;20238;-51
2022/07/15 07:31:33;;;;;;;0.20;0.20;;;;;;;20.87;53.89;95819.63;4311871;32;20193;-40
2022/07/15 07:34:03;;;;;;;0.77;0.77;;;;;;;20.92;53.14;95817.47;4339100;32;20184;-41
2022/07/15 07:36:30;;;;;;;1.23;0.63;;;;;;;20.76;52.35;95821.28;4344215;32;20193;-41
2022/07/15 07:38:59;;;;;;;0.20;0.20;;;;;;;20.82;52.05;95823.34;4320688;32;20193;-42
2022/07/15 07:41:25;;;;;;;0.20;0.20;;;;;;;20.83;50.62;95829.53;4346183;32;20239;-40
2022/07/15 07:43:51;;;;;;;0.37;0.37;;;;;;;21.03;51.22;95827.72;4346790;32;20188;-41
2022/07/15 07:46:22;;;;;;;0.40;0.40;;;;;;;20.72;51.81;95813.09;4328352;32;20227;-46
2022/07/15 07:48:48;;;;;;;0.10;0.10;;;;;;;20.87;51.31;95816.91;4290386;32;20181;-42
2022/07/15 07:51:17;;;;;;;0.37;0.37;;;;;;;20.45;50.27;95820.06;4342607;32;20203;-39
2022/07/15 07:53:50;;;;;;;2.50;2.30;;;;;;;20.71;51.01;95818.81;4264293;32;20253;-38
2022/07/15 07:56:15;;;;;;;0.37;0.37;;;;;;;20.63;51.17;95811.66;4340037;32;20180;-38
2022/07/15 07:58:40;;;;;;;0.10;0.10;;;;;;;20.72;52.36;95806.91;4344730;32;20234;-44
2022/07/15 08:01:08;;;;;;;0.90;0.90;;;;;;;20.87;51.63;95808.81;4355845;32;20263;-38
2022/07/15 08:03:38;;;;;;;0.30;0.30;;;;;;;21.04;53.92;95808.47;4372449;32;20185;-38
2022/07/15 08:06:07;;;;;;;16.17;1.57;;;;;;;21.04;52.50;95802.31;4327044;32;20212;-41
2022/07/15 08:08:34;;;;;;;0.37;0.37;;;;;;;21.15;51.74;95806.06;4347907;32;20213;-39
2022/07/15 08:11:01;;;;;;;0.70;0.70;;;;;;;21.12;51.84;95807.53;4277066;32;20193;-40
2022/07/15 08:13:28;;;;;;;1.60;0.50;;;;;;;21.14;51.33;95807.97;4307956;32;20213;-38
2022/07/15 08:15:56;;;;;;;0.63;0.63;;;;;;;21.02;51.44;95808.03;4368678;32;20189;-38
2022/07/15 08:18:23;;;;;;;1.07;1.07;;;;;;;21.01;51.80;95806.47;4321090;32;20208;-39
2022/07/15 08:20:53;;;;;;;0.50;0.50;;;;;;;21.01;52.08;95798.38;4327499;32;20190;-38
2022/07/15 08:23:20;;;;;;;0.90;0.90;;;;;;;21.00;52.91;95802.22;4350358;32;20323;-49
2022/07/15 08:25:47;;;;;;;0.40;0.40;;;;;;;21.08;53.44;95790.47;4355648;32;20203;-38
2022/07/15 08:28:13;;;;;;;0.60;0.60;;;;;;;21.12;52.55;95794.03;4332336;32;20192;-41
2022/07/15 08:30:39;;;;;;;1.13;1.03;;;;;;;21.15;53.19;95789.88;4327968;32;20224;-38
2022/07/15 08:33:06;;;;;;;0.33;0.33;;;;;;;21.27;53.45;95795.19;4324437;32;20258;-39
2022/07/15 08:35:31;;;;;;;0.53;0.53;;;;;;;21.36;53.17;95793.09;4346340;32;20330;-39
2022/07/15 08:38:06;;;;;;;1.53;1.43;;;;;;;21.51;54.47;95788.81;4354040;32;20217;-39
2022/07/15 08:40:33;;;;;;;5.03;2.63;;;;;;;21.38;51.49;95790.06;4355537;32;20250;-42
2022/07/15 08:43:00;;;;;;;0.80;0.80;;;;;;;21.43;52.13;95787.84;4339503;32;20188;-40
2022/07/15 08:45:29;;;;;;;0.80;0.80;;;;;;;21.48;50.95;95790.28;4350993;32;20322;-40
2022/07/15 08:47:57;;;;;;;1.83;1.73;;;;;;;;;;4344404;32;20240;-40
2022/07/15 08:50:23;;;;;;;0.70;0.70;;;;;;;21.43;51.60;95789.75;4338084;32;20189;-39
2022/07/15 08:52:51;;;;;;;1.53;1.13;;;;;;;21.64;55.27;95781.34;4361358;32;20410;-40
2022/07/15 08:55:21;;;;;;;2.10;1.93;;;;;;;21.59;54.36;95779.75;4367262;32;20278;-41
2022/07/15 08:57:49;;;;;;;1.73;1.07;;;;;;;21.51;52.46;95778.00;4383469;32;20185;-46
2022/07/15 09:00:28;;;;;;;3.40;3.10;;;;;;;21.38;58.05;95788.13;4369780;32;20185;-39
2022/07/15 09:02:57;;;;;;;0.93;0.93;;;;;;;21.14;52.14;95786.37;4335953;32;20181;-39
2022/07/15 09:05:32;;;;;;;0.87;0.87;;;;;;;21.38;53.86;95785.44;4355245;32;20238;-44
2022/07/15 09:08:06;;;;;;;1.63;1.53;;;;;;;21.44;53.71;95783.22;4352966;32;20268;-41
2022/07/15 09:11:00;;;;;;;0.87;0.87;;;;;;;21.53;53.08;95781.13;4331035;32;20188;-39
2022/07/15 09:13:38;;;;;;;0.57;0.57;;;;;;;21.52;53.24;95776.88;4294613;32;20275;-41
2022/07/15 09:16:19;;;;;;;2.23;2.03;;;;;;;21.68;54.94;95780.31;4339217;32;20268;-39
2022/07/15 09:18:46;;;;;;;1.13;1.13;;;;;;;21.59;51.30;95783.22;4376436;32;20201;-40
2022/07/15 09:21:21;;;;;;;0.57;0.57;;;;;;;21.15;51.66;95784.47;4349131;32;20275;-40
2022/07/15 09:23:48;;;;;;;0.70;0.70;;;;;;;21.27;56.61;95781.69;4365995;32;20203;-50
2022/07/15 09:26:49;;;;;;;0.90;0.83;;;;;;;21.32;52.43;95775.25;4356677;32;20177;-41
2022/07/15 09:37:56;;;;;;;0.40;0.40;;;;;;;21.42;55.62;95780.88;4356875;32;20207;-42
2022/07/15 09:40:22;;;;;;;1.83;1.33;;;;;;;21.33;53.56;95779.53;4324559;32;20189;-43
2022/07/15 09:43:06;;;;;;;0.63;0.63;;;;;;;21.38;51.83;95784.66;4362134;32;20193;-41
2022/07/15 09:45:39;;;;;;;0.80;0.80;;;;;;;21.52;53.87;95783.06;4344931;32;20253;-40
2022/07/15 09:48:12;;;;;;;2.30;0.63;;;;;;;21.65;50.51;95774.81;4334960;32;20236;-43
2022/07/15 09:50:39;;;;;;;0.50;0.50;;;;;;;21.21;51.23;95788.47;4302638;32;20296;-40
2022/07/15 09:53:14;;;;;;;0.40;0.40;;;;;;;21.25;51.04;95782.03;4330787;32;20200;-42
2022/07/15 09:55:41;;;;;;;1.50;1.40;;;;;;;21.30;51.19;95785.63;4342616;32;20248;-40
2022/07/15 09:58:08;;;;;;;0.40;0.40;;;;;;;21.11;51.41;95784.38;4337098;32;21633;-41
2022/07/15 10:00:38;;;;;;;0.70;0.70;;;;;;;21.24;53.55;95780.47;4326086;32;20197;-41
2022/07/15 10:03:06;;;;;;;1.27;1.17;;;;;;;21.51;53.12;95772.59;4323253;32;20269;-40
2022/07/15 10:05:39;;;;;;;0.57;0.57;;;;;;;21.63;50.66;95769.78;4361591;32;20255;-41
2022/07/15 10:08:08;;;;;;;0.60;0.60;;;;;;;21.80;49.76;95772.09;4355024;32;20210;-41
2022/07/15 10:10:39;;;;;;;0.60;0.60;;;;;;;21.91;49.47;95769.59;4360934;32;20236;-41
2022/07/15 10:13:43;;;;;;;0.60;0.60;;;;;;;21.98;50.15;95769.75;4366113;32;20215;-42
2022/07/15 10:16:46;;;;;;;0.50;0.50;;;;;;;21.98;49.27;95763.56;4362670;32;20260;-42
2022/07/15 10:19:43;;;;;;;1.70;1.20;;;;;;;21.97;49.90;95772.81;4349428;32;20243;-41
2022/07/15 10:22:22;;;;;;;1.77;1.23;;;;;;;21.75;49.06;95761.56;4310912;32;20283;-41
2022/07/15 10:24:56;;;;;;;1.13;1.13;;;;;;;22.03;50.89;95760.63;4295444;32;20196;-40
2022/07/15 10:27:43;;;;;;;0.50;0.50;;;;;;;22.05;51.37;95763.72;4353286;32;20251;-41
2022/07/15 10:30:09;;;;;;;0.57;0.57;;;;;;;22.12;48.07;95763.87;4369323;32;20220;-42
2022/07/15 10:33:13;;;;;;;0.63;0.63;;;;;;;22.02;48.98;95764.47;4355443;32;20200;-43
2022/07/15 10:35:53;;;;;;;0.40;0.40;;;;;;;22.00;49.38;95762.13;4316708;32;20242;-40
2022/07/15 10:38:33;;;;;;;1.10;1.10;;;;;;;21.99;50.46;95755.13;4292100;32;20200;-40
2022/07/15 10:41:05;;;;;;;0.80;0.80;;;;;;;22.05;48.58;95763.72;4374324;32;20216;-41
2022/07/15 10:43:53;;;;;;;0.93;0.80;;;;;;;22.18;47.50;95757.06;4368107;32;20215;-43
2022/07/15 10:46:29;;;;;;;0.57;0.57;;;;;;;22.21;48.42;95753.66;4367150;32;20208;-43
2022/07/15 10:49:06;;;;;;;0.33;0.33;;;;;;;22.29;50.90;95752.62;4359697;32;20290;-41
2022/07/15 10:51:40;;;;;;;0.30;0.30;;;;;;;22.34;49.82;95759.66;4368123;32;20184;-41
2022/07/15 10:54:33;;;;;;;0.90;0.90;;;;;;;22.36;50.10;95750.06;4373300;32;20256;-42
2022/07/15 10:57:01;;;;;;;0.33;0.33;;;;;;;22.40;49.21;95753.63;4368683;32;20211;-43
2022/07/15 10:59:37;;;;;;;0.50;0.50;;;;;;;22.35;47.45;95758.53;4353725;32;20250;-41
2022/07/15 11:02:05;;;;;;;0.67;0.67;;;;;;;22.48;48.02;95751.81;4345658;32;20209;-45
2022/07/15 11:04:33;;;;;;;0.30;0.30;;;;;;;22.54;47.46;95751.16;4330374;32;20269;-42
2022/07/15 11:07:16;;;;;;;0.50;0.50;;;;;;;22.68;47.92;95752.56;4350121;32;20205;-41
2022/07/15 11:09:57;;;;;;;0.17;0.17;;;;;;;22.75;48.29;95736.44;4338707;32;20193;-42
2022/07/15 11:12:47;;;;;;;0.67;0.67;;;;;;;22.84;48.84;95732.41;4366062;32;20267;-41
2022/07/15 11:15:26;;;;;;;0.67;0.67;;;;;;;22.92;48.77;95733.28;4360960;32;20212;-43
2022/07/15 11:17:58;;;;;;;1.37;1.27;;;;;;;22.96;48.00;95739.53;4358846;32;20189;-41
2022/07/15 11:20:36;;;;;;;1.07;1.07;;;;;;;22.96;47.89;95731.41;4298391;32;20250;-42
2022/07/15 11:23:06;;;;;;;0.80;0.80;;;;;;;22.92;45.66;95728.66;4345272;32;20201;-41
2022/07/15 11:25:43;;;;;;;0.63;0.63;;;;;;;22.95;46.37;95730.63;4277183;32;20217;-42
2022/07/15 11:28:17;;;;;;;1.13;1.13;;;;;;;22.85;44.87;95725.84;4342617;32;20208;-41
2022/07/15 11:30:58;;;;;;;0.90;0.90;;;;;;;22.90;43.93;95728.22;4325902;32;20188;-41
2022/07/15 11:33:35;;;;;;;0.70;0.70;;;;;;;22.88;49.58;95713.50;4366062;32;20235;-41
2022/07/15 11:36:10;;;;;;;0.70;0.70;;;;;;;22.87;45.72;95711.94;4353052;32;20238;-39
2022/07/15 11:38:39;;;;;;;0.73;0.73;;;;;;;22.95;44.95;95708.22;4368903;32;20255;-41
2022/07/15 11:46:52;;;;;;;0.53;0.53;;;;;;;23.01;48.39;95704.06;4333795;32;20255;-41
2022/07/15 11:49:43;;;;;;;1.43;1.33;;;;;;;22.95;50.76;95698.16;4344488;32;20268;-41
2022/07/15 11:52:22;;;;;;;1.73;1.20;;;;;;;23.04;43.99;95711.44;4368474;32;20188;-42
2022/07/15 11:54:50;;;;;;;1.00;1.00;;;;;;;22.96;47.12;95691.59;4344155;32;20189;-44
2022/07/15 11:57:18;;;;;;;1.10;1.03;;;;;;;23.04;47.77;95700.63;4360058;32;20192;-39
2022/07/15 11:59:54;;;;;;;2.33;2.23;;;;;;;23.04;42.78;95697.91;4344498;32;20269;-42
2022/07/15 12:02:28;;;;;;;1.20;1.20;;;;;;;23.12;43.33;95693.38;4369762;32;20215;-41
2022/07/15 12:05:08;;;;;;;1.43;1.33;;;;;;;23.00;48.34;95693.59;4355126;32;20196;-41
2022/07/15 12:07:47;;;;;;;1.50;1.40;;;;;;;23.13;44.60;95703.06;4343467;32;20196;-41
2022/07/15 12:10:15;;;;;;;1.17;1.17;;;;;;;22.93;49.31;95694.25;4329640;32;20201;-41